Aviation Digital Data Service (ADDS)

Output produced by METARs form (1339 UTC 27 April 2015)
found at http://www.aviationweather.gov/adds/metars/
 
KLGA 271120Z 2712/2812 32011KT P6SM BKN070 
     FM271400 32012KT P6SM BKN060 
     FM271700 32013G19KT P6SM BKN060 
     FM272000 32015G22KT P6SM BKN060 
     FM280000 33013G20KT P6SM BKN060